Terminal Aerodrome Forecast
Issued by NWS

Current Version | Previous Version | Text Only | Print | Product List | Glossary On
Versions: 1 2 3 4 5 6 7 8 9 10 11 12 13 14 15 16 17 18 19 20 21 22 23 24 25 26 27 28 29 30 31 32 33 34 35
000
FTUS43 KDMX 180858 AAA
TAFOTM
TAF AMD
KOTM 180858Z 1809/1906 00000KT 3/4SM BR SCT002
      TEMPO 1811/1814 3SM BR
     FM181400 11004KT P6SM SCT090
     FM181700 13009KT P6SM FEW100
     FM190100 13004KT P6SM SKC=

USA.gov is the U.S. government's official web portal to all federal, state and local government web resources and services.